sensor_id;sensor_type;location;lat;lon;timestamp;pressure;altitude;pressure_sealevel;temperature;humidity
61055;BME280;46939;48.940;8.258;2022-08-02T00:02:20;100523.38;;;25.57;44.81
61055;BME280;46939;48.940;8.258;2022-08-02T00:04:49;100523.63;;;25.61;44.75
61055;BME280;46939;48.940;8.258;2022-08-02T00:07:21;100524.81;;;25.50;45.19
61055;BME280;46939;48.940;8.258;2022-08-02T00:09:49;100520.50;;;25.44;45.43
61055;BME280;46939;48.940;8.258;2022-08-02T00:12:18;100528.94;;;25.42;45.23
61055;BME280;46939;48.940;8.258;2022-08-02T00:14:46;100518.03;;;25.47;45.11
61055;BME280;46939;48.940;8.258;2022-08-02T00:17:16;100518.59;;;25.44;45.34
61055;BME280;46939;48.940;8.258;2022-08-02T00:19:44;100521.59;;;25.43;45.55
61055;BME280;46939;48.940;8.258;2022-08-02T00:22:13;100523.50;;;25.42;45.30
61055;BME280;46939;48.940;8.258;2022-08-02T00:24:44;100522.47;;;25.38;45.70
61055;BME280;46939;48.940;8.258;2022-08-02T00:27:13;100519.56;;;25.24;46.01
61055;BME280;46939;48.940;8.258;2022-08-02T00:29:41;100512.78;;;25.27;45.92
61055;BME280;46939;48.940;8.258;2022-08-02T00:32:10;100513.34;;;25.24;45.95
61055;BME280;46939;48.940;8.258;2022-08-02T00:34:39;100522.63;;;25.13;46.55
61055;BME280;46939;48.940;8.258;2022-08-02T00:37:07;100526.19;;;24.98;46.87
61055;BME280;46939;48.940;8.258;2022-08-02T00:39:36;100526.59;;;24.76;47.35
61055;BME280;46939;48.940;8.258;2022-08-02T00:42:07;100528.25;;;24.67;47.59
61055;BME280;46939;48.940;8.258;2022-08-02T00:44:35;100544.03;;;24.54;48.11
61055;BME280;46939;48.940;8.258;2022-08-02T00:47:04;100541.88;;;24.46;48.05
61055;BME280;46939;48.940;8.258;2022-08-02T00:49:33;100545.69;;;24.40;48.19
61055;BME280;46939;48.940;8.258;2022-08-02T00:52:02;100536.75;;;24.40;48.58
61055;BME280;46939;48.940;8.258;2022-08-02T00:54:30;100541.06;;;24.51;48.12
61055;BME280;46939;48.940;8.258;2022-08-02T00:56:59;100543.50;;;24.47;48.36
61055;BME280;46939;48.940;8.258;2022-08-02T00:59:30;100548.88;;;24.57;48.23
61055;BME280;46939;48.940;8.258;2022-08-02T01:01:59;100547.81;;;24.53;47.98
61055;BME280;46939;48.940;8.258;2022-08-02T01:04:28;100558.09;;;24.56;47.58
61055;BME280;46939;48.940;8.258;2022-08-02T01:06:56;100559.44;;;24.59;47.71
61055;BME280;46939;48.940;8.258;2022-08-02T01:09:25;100561.09;;;24.50;48.30
61055;BME280;46939;48.940;8.258;2022-08-02T01:11:53;100555.72;;;24.40;47.89
61055;BME280;46939;48.940;8.258;2022-08-02T01:14:23;100570.31;;;24.33;48.70
61055;BME280;46939;48.940;8.258;2022-08-02T01:17:00;100560.59;;;24.17;48.68
61055;BME280;46939;48.940;8.258;2022-08-02T01:19:35;100560.88;;;24.16;49.12
61055;BME280;46939;48.940;8.258;2022-08-02T01:22:15;100558.97;;;24.26;48.75
61055;BME280;46939;48.940;8.258;2022-08-02T01:25:05;100559.22;;;24.25;48.58
61055;BME280;46939;48.940;8.258;2022-08-02T01:27:45;100553.56;;;24.26;48.71
61055;BME280;46939;48.940;8.258;2022-08-02T01:30:19;100553.00;;;24.24;48.96
61055;BME280;46939;48.940;8.258;2022-08-02T01:32:52;100557.63;;;24.24;48.86
61055;BME280;46939;48.940;8.258;2022-08-02T01:35:27;100554.38;;;24.22;49.18
61055;BME280;46939;48.940;8.258;2022-08-02T01:38:03;100551.13;;;24.30;48.79
61055;BME280;46939;48.940;8.258;2022-08-02T01:40:36;100544.06;;;24.29;48.73
61055;BME280;46939;48.940;8.258;2022-08-02T01:43:05;100544.91;;;24.19;49.04
61055;BME280;46939;48.940;8.258;2022-08-02T01:45:39;100542.72;;;24.21;48.63
61055;BME280;46939;48.940;8.258;2022-08-02T01:48:10;100551.16;;;24.15;49.13
61055;BME280;46939;48.940;8.258;2022-08-02T01:50:41;100542.75;;;24.06;49.76
61055;BME280;46939;48.940;8.258;2022-08-02T01:53:11;100539.53;;;23.99;50.02
61055;BME280;46939;48.940;8.258;2022-08-02T01:55:43;100547.13;;;23.92;50.25
61055;BME280;46939;48.940;8.258;2022-08-02T01:58:16;100554.16;;;23.87;50.52
61055;BME280;46939;48.940;8.258;2022-08-02T02:00:50;100552.00;;;23.84;50.39
61055;BME280;46939;48.940;8.258;2022-08-02T02:03:23;100551.19;;;23.74;50.83
61055;BME280;46939;48.940;8.258;2022-08-02T02:05:54;100550.88;;;23.65;50.94
61055;BME280;46939;48.940;8.258;2022-08-02T02:08:26;100547.34;;;23.59;50.76
61055;BME280;46939;48.940;8.258;2022-08-02T02:10:56;100544.94;;;23.53;50.43
61055;BME280;46939;48.940;8.258;2022-08-02T02:13:27;100543.00;;;23.43;50.41
61055;BME280;46939;48.940;8.258;2022-08-02T02:16:01;100544.09;;;23.37;50.79
61055;BME280;46939;48.940;8.258;2022-08-02T02:18:33;100541.94;;;23.34;50.86
61055;BME280;46939;48.940;8.258;2022-08-02T02:21:05;100555.72;;;23.37;50.93
61055;BME280;46939;48.940;8.258;2022-08-02T02:23:34;100542.50;;;23.41;51.15
61055;BME280;46939;48.940;8.258;2022-08-02T02:26:04;100538.44;;;23.33;51.60
61055;BME280;46939;48.940;8.258;2022-08-02T02:28:36;100540.84;;;23.35;51.37
61055;BME280;46939;48.940;8.258;2022-08-02T02:31:09;100541.41;;;23.37;51.62
61055;BME280;46939;48.940;8.258;2022-08-02T02:33:42;100538.69;;;23.32;51.61
61055;BME280;46939;48.940;8.258;2022-08-02T02:36:15;100538.94;;;23.35;51.64
61055;BME280;46939;48.940;8.258;2022-08-02T02:38:46;100537.59;;;23.28;52.09
61055;BME280;46939;48.940;8.258;2022-08-02T02:41:17;100536.19;;;23.10;52.88
61055;BME280;46939;48.940;8.258;2022-08-02T02:43:48;100534.56;;;23.09;53.32
61055;BME280;46939;48.940;8.258;2022-08-02T02:46:21;100540.25;;;23.07;52.70
61055;BME280;46939;48.940;8.258;2022-08-02T02:48:50;100545.09;;;23.00;52.99
61055;BME280;46939;48.940;8.258;2022-08-02T02:51:20;100541.59;;;23.10;52.44
61055;BME280;46939;48.940;8.258;2022-08-02T02:53:50;100555.66;;;23.07;52.63
61055;BME280;46939;48.940;8.258;2022-08-02T02:56:19;100546.19;;;23.09;52.61
61055;BME280;46939;48.940;8.258;2022-08-02T02:58:49;100552.16;;;23.17;52.25
61055;BME280;46939;48.940;8.258;2022-08-02T03:01:21;100547.88;;;23.26;52.12
61055;BME280;46939;48.940;8.258;2022-08-02T03:03:59;100551.38;;;23.31;52.29
61055;BME280;46939;48.940;8.258;2022-08-02T03:06:29;100545.97;;;23.36;51.85
61055;BME280;46939;48.940;8.258;2022-08-02T03:08:58;100549.75;;;23.40;52.26
61055;BME280;46939;48.940;8.258;2022-08-02T03:11:28;100554.38;;;23.45;52.17
61055;BME280;46939;48.940;8.258;2022-08-02T03:13:58;100548.16;;;23.45;52.48
61055;BME280;46939;48.940;8.258;2022-08-02T03:16:29;100551.41;;;23.52;52.20
61055;BME280;46939;48.940;8.258;2022-08-02T03:19:01;100548.69;;;23.52;52.34
61055;BME280;46939;48.940;8.258;2022-08-02T03:21:30;100551.66;;;23.55;52.16
61055;BME280;46939;48.940;8.258;2022-08-02T03:23:58;100544.63;;;23.59;51.88
61055;BME280;46939;48.940;8.258;2022-08-02T03:26:27;100551.13;;;23.58;52.18
61055;BME280;46939;48.940;8.258;2022-08-02T03:28:56;100551.66;;;23.55;51.94
61055;BME280;46939;48.940;8.258;2022-08-02T03:31:24;100559.50;;;23.52;52.46
61055;BME280;46939;48.940;8.258;2022-08-02T03:33:57;100554.38;;;23.55;52.22
61055;BME280;46939;48.940;8.258;2022-08-02T03:36:28;100556.81;;;23.57;52.13
61055;BME280;46939;48.940;8.258;2022-08-02T03:38:58;100560.09;;;23.64;52.54
61055;BME280;46939;48.940;8.258;2022-08-02T03:41:28;100557.94;;;23.71;51.66
61055;BME280;46939;48.940;8.258;2022-08-02T03:43:59;100559.81;;;23.66;52.40
61055;BME280;46939;48.940;8.258;2022-08-02T03:46:28;100562.78;;;23.64;52.54
61055;BME280;46939;48.940;8.258;2022-08-02T03:49:01;100562.22;;;23.62;52.58
61055;BME280;46939;48.940;8.258;2022-08-02T03:51:29;100559.25;;;23.58;52.55
61055;BME280;46939;48.940;8.258;2022-08-02T03:53:59;100561.97;;;23.58;52.18
61055;BME280;46939;48.940;8.258;2022-08-02T03:56:28;100556.81;;;23.57;52.11
61055;BME280;46939;48.940;8.258;2022-08-02T03:59:08;100556.81;;;23.57;52.25
61055;BME280;46939;48.940;8.258;2022-08-02T04:01:37;100568.47;;;23.57;52.21
61055;BME280;46939;48.940;8.258;2022-08-02T04:04:08;100563.84;;;23.58;52.29
61055;BME280;46939;48.940;8.258;2022-08-02T04:06:37;100562.78;;;23.54;52.17
61055;BME280;46939;48.940;8.258;2022-08-02T04:09:06;100561.69;;;23.55;51.85
61055;BME280;46939;48.940;8.258;2022-08-02T04:11:34;100563.56;;;23.54;51.59
61055;BME280;46939;48.940;8.258;2022-08-02T04:14:07;100568.72;;;23.51;51.65
61055;BME280;46939;48.940;8.258;2022-08-02T04:16:40;100564.41;;;23.45;52.41
61055;BME280;46939;48.940;8.258;2022-08-02T04:19:15;100561.69;;;23.45;52.48
61055;BME280;46939;48.940;8.258;2022-08-02T04:21:45;100559.75;;;23.40;53.34
61055;BME280;46939;48.940;8.258;2022-08-02T04:24:16;100569.78;;;23.34;53.43
61055;BME280;46939;48.940;8.258;2022-08-02T04:26:45;100563.53;;;23.29;53.89
61055;BME280;46939;48.940;8.258;2022-08-02T04:29:16;100570.31;;;23.31;53.95
61055;BME280;46939;48.940;8.258;2022-08-02T04:31:46;100567.06;;;23.34;53.85
61055;BME280;46939;48.940;8.258;2022-08-02T04:34:17;100570.31;;;23.36;53.66
61055;BME280;46939;48.940;8.258;2022-08-02T04:36:46;100561.38;;;23.36;53.65
61055;BME280;46939;48.940;8.258;2022-08-02T04:39:15;100555.41;;;23.29;54.00
61055;BME280;46939;48.940;8.258;2022-08-02T04:41:44;100570.88;;;23.33;53.72
61055;BME280;46939;48.940;8.258;2022-08-02T04:44:13;100569.78;;;23.39;53.73
61055;BME280;46939;48.940;8.258;2022-08-02T04:46:42;100564.41;;;23.45;54.11
61055;BME280;46939;48.940;8.258;2022-08-02T04:49:11;100566.00;;;23.51;54.15
61055;BME280;46939;48.940;8.258;2022-08-02T04:51:43;100563.84;;;23.58;54.67
61055;BME280;46939;48.940;8.258;2022-08-02T04:54:11;100572.50;;;23.60;54.73
61055;BME280;46939;48.940;8.258;2022-08-02T04:56:40;100566.84;;;23.61;55.08
61055;BME280;46939;48.940;8.258;2022-08-02T04:59:09;100580.66;;;23.75;54.66
61055;BME280;46939;48.940;8.258;2022-08-02T05:01:37;100575.81;;;23.87;54.41
61055;BME280;46939;48.940;8.258;2022-08-02T05:04:09;100570.38;;;23.93;54.01
61055;BME280;46939;48.940;8.258;2022-08-02T05:06:37;100569.81;;;24.01;53.72
61055;BME280;46939;48.940;8.258;2022-08-02T05:09:08;100582.25;;;24.12;53.49
61055;BME280;46939;48.940;8.258;2022-08-02T05:11:37;100581.19;;;24.08;53.71
61055;BME280;46939;48.940;8.258;2022-08-02T05:14:05;100578.75;;;24.11;53.43
61055;BME280;46939;48.940;8.258;2022-08-02T05:16:34;100569.28;;;24.14;53.10
61055;BME280;46939;48.940;8.258;2022-08-02T05:19:03;100561.38;;;24.28;52.86
61055;BME280;46939;48.940;8.258;2022-08-02T05:21:32;100566.81;;;24.23;52.87
61055;BME280;46939;48.940;8.258;2022-08-02T05:24:01;100560.84;;;24.31;52.15
61055;BME280;46939;48.940;8.258;2022-08-02T05:26:32;100569.25;;;24.40;51.55
61055;BME280;46939;48.940;8.258;2022-08-02T05:29:01;100572.47;;;24.47;51.78
61055;BME280;46939;48.940;8.258;2022-08-02T05:31:29;100572.50;;;24.42;51.84
61055;BME280;46939;48.940;8.258;2022-08-02T05:33:58;100578.13;;;24.55;51.37
61055;BME280;46939;48.940;8.258;2022-08-02T05:36:26;100571.34;;;24.63;51.32
61055;BME280;46939;48.940;8.258;2022-08-02T05:38:55;100583.81;;;24.59;51.76
61055;BME280;46939;48.940;8.258;2022-08-02T05:41:24;100578.41;;;24.59;52.32
61055;BME280;46939;48.940;8.258;2022-08-02T05:43:55;100581.69;;;24.51;52.22
61055;BME280;46939;48.940;8.258;2022-08-02T05:46:24;100578.38;;;24.69;52.01
61055;BME280;46939;48.940;8.258;2022-08-02T05:48:52;100582.66;;;24.80;51.67
61055;BME280;46939;48.940;8.258;2022-08-02T05:51:23;100585.31;;;24.91;51.97
61055;BME280;46939;48.940;8.258;2022-08-02T05:54:04;100583.19;;;24.82;52.26
61055;BME280;46939;48.940;8.258;2022-08-02T05:56:42;100588.56;;;24.93;51.78
61055;BME280;46939;48.940;8.258;2022-08-02T05:59:22;100592.38;;;24.92;51.44
61055;BME280;46939;48.940;8.258;2022-08-02T06:01:56;100591.31;;;24.88;51.66
61055;BME280;46939;48.940;8.258;2022-08-02T06:04:30;100586.41;;;24.90;52.11
61055;BME280;46939;48.940;8.258;2022-08-02T06:07:01;100587.47;;;24.99;51.78
61055;BME280;46939;48.940;8.258;2022-08-02T06:09:32;100593.66;;;25.15;51.04
61055;BME280;46939;48.940;8.258;2022-08-02T06:12:02;100600.09;;;25.24;50.33
61055;BME280;46939;48.940;8.258;2022-08-02T06:14:35;100600.03;;;25.34;49.81
61055;BME280;46939;48.940;8.258;2022-08-02T06:17:04;100597.75;;;25.51;49.43
61055;BME280;46939;48.940;8.258;2022-08-02T06:19:35;100596.09;;;25.55;49.35
61055;BME280;46939;48.940;8.258;2022-08-02T06:22:05;100589.31;;;25.58;48.59
61055;BME280;46939;48.940;8.258;2022-08-02T06:24:43;100587.34;;;25.64;48.53
61055;BME280;46939;48.940;8.258;2022-08-02T06:27:13;100589.16;;;25.78;47.79
61055;BME280;46939;48.940;8.258;2022-08-02T06:29:47;100586.56;;;25.97;47.27
61055;BME280;46939;48.940;8.258;2022-08-02T06:32:16;100590.09;;;25.98;47.28
61055;BME280;46939;48.940;8.258;2022-08-02T06:34:45;100597.59;;;26.11;46.73
61055;BME280;46939;48.940;8.258;2022-08-02T06:37:21;100596.41;;;26.17;46.70
61055;BME280;46939;48.940;8.258;2022-08-02T06:39:58;100602.00;;;26.31;46.70
61055;BME280;46939;48.940;8.258;2022-08-02T06:42:39;100593.97;;;26.50;46.36
61055;BME280;46939;48.940;8.258;2022-08-02T06:45:12;100597.19;;;26.52;45.57
61055;BME280;46939;48.940;8.258;2022-08-02T06:47:41;100603.28;;;26.68;45.36
61055;BME280;46939;48.940;8.258;2022-08-02T06:50:10;100598.50;;;26.78;44.99
61055;BME280;46939;48.940;8.258;2022-08-02T06:52:39;100592.88;;;26.94;44.24
61055;BME280;46939;48.940;8.258;2022-08-02T06:55:08;100590.25;;;27.08;44.67
61055;BME280;46939;48.940;8.258;2022-08-02T06:57:37;100591.47;;;27.20;43.99
61055;BME280;46939;48.940;8.258;2022-08-02T07:00:07;100586.91;;;27.35;44.11
61055;BME280;46939;48.940;8.258;2022-08-02T07:02:39;100589.84;;;27.57;43.27
61055;BME280;46939;48.940;8.258;2022-08-02T07:05:08;100593.72;;;27.70;43.00
61055;BME280;46939;48.940;8.258;2022-08-02T07:07:37;100592.31;;;27.91;42.95
61055;BME280;46939;48.940;8.258;2022-08-02T07:10:07;100602.16;;;28.06;42.50
61055;BME280;46939;48.940;8.258;2022-08-02T07:12:36;100599.34;;;28.25;42.02
61055;BME280;46939;48.940;8.258;2022-08-02T07:15:06;100600.75;;;28.36;41.48
61055;BME280;46939;48.940;8.258;2022-08-02T07:17:39;100591.22;;;28.39;41.56
61055;BME280;46939;48.940;8.258;2022-08-02T07:20:08;100606.16;;;28.41;41.78
61055;BME280;46939;48.940;8.258;2022-08-02T07:22:38;100599.41;;;28.80;41.29
61055;BME280;46939;48.940;8.258;2022-08-02T07:25:07;100601.31;;;29.07;40.47
61055;BME280;46939;48.940;8.258;2022-08-02T07:27:36;100596.66;;;29.44;40.09
61055;BME280;46939;48.940;8.258;2022-08-02T07:30:06;100604.47;;;29.73;38.97
61055;BME280;46939;48.940;8.258;2022-08-02T07:32:36;100603.75;;;29.90;38.94
61055;BME280;46939;48.940;8.258;2022-08-02T07:35:08;100614.44;;;30.00;38.86
61055;BME280;46939;48.940;8.258;2022-08-02T07:37:36;100604.53;;;30.13;38.08
61055;BME280;46939;48.940;8.258;2022-08-02T07:40:09;100597.63;;;30.38;37.97
61055;BME280;46939;48.940;8.258;2022-08-02T07:42:37;100601.69;;;30.89;37.06
61055;BME280;46939;48.940;8.258;2022-08-02T07:45:07;100604.94;;;31.08;36.33
61055;BME280;46939;48.940;8.258;2022-08-02T07:47:36;100604.00;;;31.39;36.21
61055;BME280;46939;48.940;8.258;2022-08-02T07:50:08;100601.59;;;31.64;35.25
61055;BME280;46939;48.940;8.258;2022-08-02T07:52:37;100599.00;;;31.76;34.58
61055;BME280;46939;48.940;8.258;2022-08-02T07:55:06;100600.44;;;31.99;34.33
61055;BME280;46939;48.940;8.258;2022-08-02T07:57:36;100591.19;;;32.21;33.87
61055;BME280;46939;48.940;8.258;2022-08-02T08:00:07;100582.88;;;32.47;33.18
61055;BME280;46939;48.940;8.258;2022-08-02T08:02:38;100580.09;;;32.56;33.15
61055;BME280;46939;48.940;8.258;2022-08-02T08:05:10;100584.81;;;32.38;33.89
61055;BME280;46939;48.940;8.258;2022-08-02T08:07:39;100592.63;;;32.66;32.91
61055;BME280;46939;48.940;8.258;2022-08-02T08:10:09;100593.13;;;32.89;32.92
61055;BME280;46939;48.940;8.258;2022-08-02T08:12:38;100587.94;;;33.17;32.74
61055;BME280;46939;48.940;8.258;2022-08-02T08:15:07;100587.41;;;33.65;32.01
61055;BME280;46939;48.940;8.258;2022-08-02T08:17:36;100584.41;;;33.91;31.01
61055;BME280;46939;48.940;8.258;2022-08-02T08:20:06;100583.19;;;34.13;31.10
61055;BME280;46939;48.940;8.258;2022-08-02T08:22:37;100584.69;;;33.98;30.72
61055;BME280;46939;48.940;8.258;2022-08-02T08:25:08;100577.47;;;34.43;29.89
61055;BME280;46939;48.940;8.258;2022-08-02T08:27:37;100579.56;;;34.58;29.15
61055;BME280;46939;48.940;8.258;2022-08-02T08:30:07;100574.16;;;34.86;28.45
61055;BME280;46939;48.940;8.258;2022-08-02T08:32:36;100579.97;;;34.97;28.61
61055;BME280;46939;48.940;8.258;2022-08-02T08:35:06;100581.81;;;34.93;28.16
61055;BME280;46939;48.940;8.258;2022-08-02T08:37:40;100575.63;;;35.08;27.67
61055;BME280;46939;48.940;8.258;2022-08-02T08:40:11;100570.19;;;35.24;27.79
61055;BME280;46939;48.940;8.258;2022-08-02T08:42:39;100567.09;;;35.54;27.80
61055;BME280;46939;48.940;8.258;2022-08-02T08:45:09;100579.38;;;35.56;27.58
61055;BME280;46939;48.940;8.258;2022-08-02T08:47:39;100583.06;;;35.76;26.95
61055;BME280;46939;48.940;8.258;2022-08-02T08:50:10;100573.63;;;35.77;27.34
61055;BME280;46939;48.940;8.258;2022-08-02T08:52:47;100568.50;;;35.76;27.14
61055;BME280;46939;48.940;8.258;2022-08-02T08:55:16;100579.41;;;35.72;27.55
61055;BME280;46939;48.940;8.258;2022-08-02T08:57:45;100563.31;;;35.74;26.95
61055;BME280;46939;48.940;8.258;2022-08-02T09:00:15;100556.72;;;35.63;26.98
61055;BME280;46939;48.940;8.258;2022-08-02T09:02:43;100563.59;;;35.85;27.17
61055;BME280;46939;48.940;8.258;2022-08-02T09:05:14;100559.97;;;35.81;27.44
61055;BME280;46939;48.940;8.258;2022-08-02T09:07:50;100550.50;;;35.66;26.97
61055;BME280;46939;48.940;8.258;2022-08-02T09:10:36;100554.22;;;36.17;26.87
61055;BME280;46939;48.940;8.258;2022-08-02T09:13:08;100550.00;;;36.39;26.36
61055;BME280;46939;48.940;8.258;2022-08-02T09:15:38;100553.94;;;36.38;25.83
61055;BME280;46939;48.940;8.258;2022-08-02T09:18:07;100552.06;;;36.58;25.61
61055;BME280;46939;48.940;8.258;2022-08-02T09:20:51;100550.97;;;36.63;26.15
61055;BME280;46939;48.940;8.258;2022-08-02T09:23:25;100557.59;;;36.78;25.87
61055;BME280;46939;48.940;8.258;2022-08-02T09:25:58;100564.94;;;37.05;25.52
61055;BME280;46939;48.940;8.258;2022-08-02T09:28:28;100567.13;;;37.15;24.68
61055;BME280;46939;48.940;8.258;2022-08-02T09:31:02;100559.56;;;37.32;24.27
61055;BME280;46939;48.940;8.258;2022-08-02T09:33:31;100550.63;;;37.38;24.93
61055;BME280;46939;48.940;8.258;2022-08-02T09:36:03;100546.91;;;37.50;24.75
61055;BME280;46939;48.940;8.258;2022-08-02T09:38:35;100549.34;;;37.75;24.77
61055;BME280;46939;48.940;8.258;2022-08-02T09:41:05;100543.81;;;37.52;24.56
61055;BME280;46939;48.940;8.258;2022-08-02T09:43:36;100545.66;;;37.67;23.68
61055;BME280;46939;48.940;8.258;2022-08-02T09:46:12;100540.25;;;37.74;24.02
61055;BME280;46939;48.940;8.258;2022-08-02T09:48:48;100536.50;;;38.09;23.34
61055;BME280;46939;48.940;8.258;2022-08-02T09:51:17;100536.41;;;38.28;23.34
61055;BME280;46939;48.940;8.258;2022-08-02T09:53:51;100539.31;;;38.62;23.09
61055;BME280;46939;48.940;8.258;2022-08-02T09:56:21;100531.94;;;39.00;22.62
61055;BME280;46939;48.940;8.258;2022-08-02T09:58:51;100536.91;;;39.17;22.38
61055;BME280;46939;48.940;8.258;2022-08-02T10:01:30;100538.34;;;39.38;22.02
61055;BME280;46939;48.940;8.258;2022-08-02T10:04:01;100543.44;;;39.36;21.99
61055;BME280;46939;48.940;8.258;2022-08-02T10:06:30;100537.72;;;39.21;21.46
61055;BME280;46939;48.940;8.258;2022-08-02T10:09:02;100537.75;;;39.59;21.25
61055;BME280;46939;48.940;8.258;2022-08-02T10:11:31;100535.94;;;39.73;21.22
61055;BME280;46939;48.940;8.258;2022-08-02T10:14:02;100531.75;;;39.94;20.62
61055;BME280;46939;48.940;8.258;2022-08-02T10:16:34;100535.09;;;39.69;21.28
61055;BME280;46939;48.940;8.258;2022-08-02T10:19:03;100537.97;;;39.43;21.50
61055;BME280;46939;48.940;8.258;2022-08-02T10:21:37;100538.75;;;39.77;21.20
61055;BME280;46939;48.940;8.258;2022-08-02T10:24:14;100526.16;;;39.87;20.87
61055;BME280;46939;48.940;8.258;2022-08-02T10:26:44;100526.22;;;39.97;21.17
61055;BME280;46939;48.940;8.258;2022-08-02T10:29:15;100516.56;;;40.21;20.85
61055;BME280;46939;48.940;8.258;2022-08-02T10:31:47;100520.13;;;40.22;20.27
61055;BME280;46939;48.940;8.258;2022-08-02T10:34:19;100510.13;;;40.76;19.92
61055;BME280;46939;48.940;8.258;2022-08-02T10:36:49;100511.50;;;39.90;20.63
61055;BME280;46939;48.940;8.258;2022-08-02T10:39:22;100511.06;;;39.84;20.19
61055;BME280;46939;48.940;8.258;2022-08-02T10:41:52;100509.16;;;39.92;20.42
61055;BME280;46939;48.940;8.258;2022-08-02T10:44:22;100503.13;;;40.31;20.42
61055;BME280;46939;48.940;8.258;2022-08-02T10:46:51;100497.63;;;40.41;20.13
61055;BME280;46939;48.940;8.258;2022-08-02T10:49:20;100498.81;;;40.37;19.69
61055;BME280;46939;48.940;8.258;2022-08-02T10:54:55;100484.88;;;41.03;19.14
61055;BME280;46939;48.940;8.258;2022-08-02T10:57:25;100490.53;;;40.51;19.23
61055;BME280;46939;48.940;8.258;2022-08-02T10:59:57;100498.47;;;39.94;20.55
61055;BME280;46939;48.940;8.258;2022-08-02T11:02:34;100487.25;;;40.31;19.52
61055;BME280;46939;48.940;8.258;2022-08-02T11:05:06;100481.88;;;40.56;19.18
61055;BME280;46939;48.940;8.258;2022-08-02T11:07:37;100478.66;;;40.54;19.35
61055;BME280;46939;48.940;8.258;2022-08-02T11:10:36;100482.38;;;40.80;18.80
61055;BME280;46939;48.940;8.258;2022-08-02T11:13:07;100480.34;;;40.69;18.46
61055;BME280;46939;48.940;8.258;2022-08-02T11:15:55;100474.59;;;41.17;18.62
61055;BME280;46939;48.940;8.258;2022-08-02T11:21:31;100465.09;;;41.58;17.68
61055;BME280;46939;48.940;8.258;2022-08-02T11:24:25;100463.13;;;41.44;17.65
61055;BME280;46939;48.940;8.258;2022-08-02T11:26:59;100466.72;;;41.48;17.77
61055;BME280;46939;48.940;8.258;2022-08-02T11:29:33;100472.28;;;41.52;17.51
61055;BME280;46939;48.940;8.258;2022-08-02T11:32:03;100466.72;;;41.94;17.33
61055;BME280;46939;48.940;8.258;2022-08-02T11:34:32;100462.34;;;41.76;17.02
61055;BME280;46939;48.940;8.258;2022-08-02T11:37:01;100464.31;;;41.68;17.32
61055;BME280;46939;48.940;8.258;2022-08-02T11:39:29;100462.31;;;41.47;17.62
61055;BME280;46939;48.940;8.258;2022-08-02T11:42:01;100458.38;;;41.91;17.25
61055;BME280;46939;48.940;8.258;2022-08-02T11:44:39;100465.13;;;41.76;16.92
61055;BME280;46939;48.940;8.258;2022-08-02T11:47:08;100459.16;;;41.59;17.50
61055;BME280;46939;48.940;8.258;2022-08-02T11:49:37;100446.84;;;41.75;16.82
61055;BME280;46939;48.940;8.258;2022-08-02T11:52:06;100452.03;;;41.90;17.26
61055;BME280;46939;48.940;8.258;2022-08-02T11:54:36;100456.75;;;42.04;17.25
61055;BME280;46939;48.940;8.258;2022-08-02T11:57:14;100459.06;;;42.41;16.71
61055;BME280;46939;48.940;8.258;2022-08-02T11:59:45;100454.59;;;42.62;15.85
61055;BME280;46939;48.940;8.258;2022-08-02T12:02:15;100453.41;;;42.63;16.17
61055;BME280;46939;48.940;8.258;2022-08-02T12:04:50;100454.63;;;42.65;16.21
61055;BME280;46939;48.940;8.258;2022-08-02T12:07:25;100451.28;;;42.99;15.68
61055;BME280;46939;48.940;8.258;2022-08-02T12:09:58;100453.03;;;42.57;15.89
61055;BME280;46939;48.940;8.258;2022-08-02T12:12:29;100446.34;;;42.40;16.24
61055;BME280;46939;48.940;8.258;2022-08-02T12:14:58;100450.13;;;42.89;15.89
61055;BME280;46939;48.940;8.258;2022-08-02T12:17:26;100450.47;;;43.02;15.73
61055;BME280;46939;48.940;8.258;2022-08-02T12:20:08;100454.84;;;43.07;16.15
61055;BME280;46939;48.940;8.258;2022-08-02T12:22:37;100447.72;;;42.95;15.79
61055;BME280;46939;48.940;8.258;2022-08-02T12:25:15;100451.25;;;43.10;15.74
61055;BME280;46939;48.940;8.258;2022-08-02T12:27:49;100447.72;;;42.95;16.02
61055;BME280;46939;48.940;8.258;2022-08-02T12:30:17;100445.69;;;43.03;15.43
61055;BME280;46939;48.940;8.258;2022-08-02T12:32:46;100445.63;;;43.17;15.25
61055;BME280;46939;48.940;8.258;2022-08-02T12:35:17;100439.91;;;43.35;15.37
61055;BME280;46939;48.940;8.258;2022-08-02T12:37:48;100440.53;;;43.57;15.20
61055;BME280;46939;48.940;8.258;2022-08-02T12:40:19;100437.38;;;43.55;14.95
61055;BME280;46939;48.940;8.258;2022-08-02T12:42:51;100438.00;;;43.73;14.65
61055;BME280;46939;48.940;8.258;2022-08-02T12:45:20;100433.31;;;43.04;15.42
61055;BME280;46939;48.940;8.258;2022-08-02T12:47:51;100423.84;;;43.53;14.96
61055;BME280;46939;48.940;8.258;2022-08-02T12:50:21;100429.00;;;43.55;14.95
61055;BME280;46939;48.940;8.258;2022-08-02T12:53:05;100423.72;;;43.68;14.90
61055;BME280;46939;48.940;8.258;2022-08-02T12:55:35;100417.16;;;43.85;14.61
61055;BME280;46939;48.940;8.258;2022-08-02T12:58:08;100418.28;;;43.50;14.63
61055;BME280;46939;48.940;8.258;2022-08-02T13:00:37;100413.25;;;43.79;14.57
61055;BME280;46939;48.940;8.258;2022-08-02T13:03:07;100418.38;;;43.84;14.62
61055;BME280;46939;48.940;8.258;2022-08-02T13:05:36;100412.00;;;43.87;14.15
61055;BME280;46939;48.940;8.258;2022-08-02T13:08:04;100414.53;;;43.71;14.81
61055;BME280;46939;48.940;8.258;2022-08-02T13:10:33;100420.25;;;43.98;14.36
61055;BME280;46939;48.940;8.258;2022-08-02T13:13:02;100410.34;;;43.86;14.58
61055;BME280;46939;48.940;8.258;2022-08-02T13:15:33;100405.28;;;43.77;14.49
61055;BME280;46939;48.940;8.258;2022-08-02T13:18:02;100408.09;;;43.74;14.71